Terminal Aerodrome Forecast
Issued by NWS Austin/San Antonio, TX

Home | Current Version | Previous Version | Text Only | Print | Product List | Glossary On
Versions: 1 2 3 4 5 6 7 8 9 10 11 12 13 14 15 16 17
369
FTUS44 KEWX 270533
TAFDRT
TAF
KDRT 270533Z 2706/2806 10011KT P6SM BKN250
     FM270800 09007KT P6SM BKN040
     FM271100 35007KT P6SM BKN040
     FM271900 13007KT P6SM SCT040 BKN250=

USA.gov is the U.S. government's official web portal to all federal, state and local government web resources and services.